Time;durP1;ratioP1;P1;durP2;ratioP2;P2;SDS_P1;SDS_P2;PMS_P1;PMS_P2;Temp;Humidity;BMP_temperature;BMP_pressure;BME280_temperature;BME280_humidity;BME280_pressure;Samples;Min_cycle;Max_cycle;Signal;HPM_P1;HPM_P2
2022/11/24 00:01:20;;;;;;;;;;;;;;;;;;7370888;19;807;-67
2022/11/24 00:03:48;;;;;;;;;;;;;;;;;;7369218;19;1283;-67
2022/11/24 00:06:16;;;;;;;;;;;;;;;;;;7371594;19;834;-67
2022/11/24 00:08:44;;;;;;;;;;;;;;;;;;7370662;19;775;-67
2022/11/24 00:11:13;;;;;;;;;;;;;;;;;;7371474;19;835;-67
2022/11/24 00:13:41;;;;;;;;;;;;;;;;;;7369704;19;1252;-66
2022/11/24 00:16:09;;;;;;;;;;;;;;;;;;7370643;19;1852;-67
2022/11/24 00:18:37;;;;;;;;;;;;;;;;;;7368137;19;1845;-66
2022/11/24 00:21:05;;;;;;;;;;;;;;;;;;7370974;19;824;-66
2022/11/24 00:23:33;;;;;;;;;;;;;;;;;;7370795;19;1780;-67
2022/11/24 00:26:02;;;;;;;;;;;;;;;;;;7370975;19;772;-66
2022/11/24 00:28:30;;;;;;;;;;;;;;;;;;7369545;19;832;-66
2022/11/24 00:30:58;;;;;;;;;;;;;;;;;;7368922;19;814;-66
2022/11/24 00:33:26;;;;;;;;;;;;;;;;;;7369841;19;1266;-66
2022/11/24 00:35:54;;;;;;;;;;;;;;;;;;7369831;19;872;-67
2022/11/24 00:38:22;;;;;;;;;;;;;;;;;;7367518;19;1853;-67
2022/11/24 00:40:50;;;;;;;;;;;;;;;;;;7372421;19;1765;-67
2022/11/24 00:43:18;;;;;;;;;;;;;;;;;;7368996;19;1311;-67
2022/11/24 00:45:47;;;;;;;;;;;;;;;;;;7370440;19;851;-67
2022/11/24 00:48:15;;;;;;;;;;;;;;;;;;7369317;19;875;-67
2022/11/24 00:50:43;;;;;;;;;;;;;;;;;;7367843;19;804;-67
2022/11/24 00:53:11;;;;;;;;;;;;;;;;;;7373442;19;1830;-67
2022/11/24 00:55:39;;;;;;;;;;;;;;;;;;7367935;19;877;-66
2022/11/24 00:58:07;;;;;;;;;;;;;;;;;;7367175;19;1856;-67
2022/11/24 01:00:36;;;;;;;;;;;;;;;;;;7370018;19;762;-67
2022/11/24 01:03:04;;;;;;;;;;;;;;;;;;7368321;19;1331;-67
2022/11/24 01:05:32;;;;;;;;;;;;;;;;;;7369499;19;795;-66
2022/11/24 01:08:00;;;;;;;;;;;;;;;;;;7368144;19;862;-67
2022/11/24 01:10:28;;;;;;;;;;;;;;;;;;7369555;19;989;-68
2022/11/24 01:12:56;;;;;;;;;;;;;;;;;;7368381;19;1353;-67
2022/11/24 01:15:24;;;;;;;;;;;;;;;;;;7369138;19;844;-67
2022/11/24 01:17:52;;;;;;;;;;;;;;;;;;7367246;19;1845;-67
2022/11/24 01:20:21;;;;;;;;;;;;;;;;;;7371124;19;1871;-68
2022/11/24 01:22:49;;;;;;;;;;;;;;;;;;7368484;19;1357;-67
2022/11/24 01:25:17;;;;;;;;;;;;;;;;;;7369249;19;798;-67
2022/11/24 01:27:45;;;;;;;;;;;;;;;;;;7368269;19;805;-67
2022/11/24 01:30:13;;;;;;;;;;;;;;;;;;7369626;19;1789;-67
2022/11/24 01:32:41;;;;;;;;;;;;;;;;;;7368522;19;1298;-67
2022/11/24 01:35:09;;;;;;;;;;;;;;;;;;7368265;19;807;-67
2022/11/24 01:37:38;;;;;;;;;;;;;;;;;;7367388;19;1845;-67
2022/11/24 01:40:06;;;;;;;;;;;;;;;;;;7371818;19;1894;-67
2022/11/24 01:42:34;;;;;;;;;;;;;;;;;;7368607;19;1346;-68
2022/11/24 01:45:02;;;;;;;;;;;;;;;;;;7368811;19;1664;-68
2022/11/24 01:47:30;;;;;;;;;;;;;;;;;;7373559;19;1771;-67
2022/11/24 01:49:58;;;;;;;;;;;;;;;;;;7372409;19;800;-68
2022/11/24 01:52:27;;;;;;;;;;;;;;;;;;7371589;19;1315;-68
2022/11/24 01:54:55;;;;;;;;;;;;;;;;;;7373993;19;1711;-67
2022/11/24 01:57:23;;;;;;;;;;;;;;;;;;7371278;19;1856;-67
2022/11/24 01:59:51;;;;;;;;;;;;;;;;;;7369772;19;820;-68
2022/11/24 02:02:24;;;;;;;;;;;;;;;;;;7367516;19;781;-67
2022/11/24 02:04:52;;;;;;;;;;;;;;;;;;7367064;19;866;-67
2022/11/24 02:07:20;;;;;;;;;;;;;;;;;;7368093;19;779;-67
2022/11/24 02:09:48;;;;;;;;;;;;;;;;;;7366730;19;803;-67
2022/11/24 02:12:17;;;;;;;;;;;;;;;;;;7367426;19;786;-67
2022/11/24 02:14:45;;;;;;;;;;;;;;;;;;7365110;19;1318;-67
2022/11/24 02:17:13;;;;;;;;;;;;;;;;;;7371201;19;1897;-67
2022/11/24 02:19:41;;;;;;;;;;;;;;;;;;7366324;19;795;-67
2022/11/24 02:22:09;;;;;;;;;;;;;;;;;;7367912;19;981;-67
2022/11/24 02:24:37;;;;;;;;;;;;;;;;;;7364161;19;1318;-67
2022/11/24 02:27:05;;;;;;;;;;;;;;;;;;7367957;19;858;-67
2022/11/24 02:29:34;;;;;;;;;;;;;;;;;;7366677;19;920;-67
2022/11/24 02:32:02;;;;;;;;;;;;;;;;;;7367841;19;875;-67
2022/11/24 02:34:30;;;;;;;;;;;;;;;;;;7364811;19;1338;-67
2022/11/24 02:36:58;;;;;;;;;;;;;;;;;;7366936;19;816;-67
2022/11/24 02:39:26;;;;;;;;;;;;;;;;;;7362954;19;1853;-67
2022/11/24 02:41:54;;;;;;;;;;;;;;;;;;7365673;19;799;-67
2022/11/24 02:44:22;;;;;;;;;;;;;;;;;;7366827;19;1852;-68
2022/11/24 02:46:51;;;;;;;;;;;;;;;;;;7367211;19;819;-67
2022/11/24 02:49:19;;;;;;;;;;;;;;;;;;7365784;19;878;-68
2022/11/24 02:51:47;;;;;;;;;;;;;;;;;;7367580;19;796;-67
2022/11/24 02:54:15;;;;;;;;;;;;;;;;;;7363789;19;1325;-67
2022/11/24 02:56:43;;;;;;;;;;;;;;;;;;7366650;19;846;-67
2022/11/24 02:59:11;;;;;;;;;;;;;;;;;;7363616;19;1834;-67
2022/11/24 03:01:39;;;;;;;;;;;;;;;;;;7366862;19;771;-67
2022/11/24 03:04:08;;;;;;;;;;;;;;;;;;7368344;19;1853;-67
2022/11/24 03:06:36;;;;;;;;;;;;;;;;;;7367067;19;789;-67
2022/11/24 03:09:04;;;;;;;;;;;;;;;;;;7365941;19;804;-67
2022/11/24 03:11:33;;;;;;;;;;;;;;;;;;7367523;19;2089;-67
2022/11/24 03:14:01;;;;;;;;;;;;;;;;;;7369089;19;1256;-68
2022/11/24 03:16:29;;;;;;;;;;;;;;;;;;7380671;19;835;-66
2022/11/24 03:18:57;;;;;;;;;;;;;;;;;;7377911;19;1849;-67
2022/11/24 03:21:25;;;;;;;;;;;;;;;;;;7379982;19;821;-67
2022/11/24 03:23:56;;;;;;;;;;;;;;;;;;7377271;19;1347;-67
2022/11/24 03:26:24;;;;;;;;;;;;;;;;;;7380125;19;808;-67
2022/11/24 03:28:52;;;;;;;;;;;;;;;;;;7379250;19;803;-67
2022/11/24 03:31:21;;;;;;;;;;;;;;;;;;7379803;19;823;-67
2022/11/24 03:33:49;;;;;;;;;;;;;;;;;;7375913;19;1305;-67
2022/11/24 03:36:17;;;;;;;;;;;;;;;;;;7379612;19;819;-67
2022/11/24 03:38:45;;;;;;;;;;;;;;;;;;7376826;19;1851;-67
2022/11/24 03:41:13;;;;;;;;;;;;;;;;;;7383657;19;1805;-67
2022/11/24 03:43:41;;;;;;;;;;;;;;;;;;7375880;19;1344;-67
2022/11/24 03:46:09;;;;;;;;;;;;;;;;;;7379011;19;864;-68
2022/11/24 03:48:37;;;;;;;;;;;;;;;;;;7377666;19;829;-67
2022/11/24 03:51:06;;;;;;;;;;;;;;;;;;7379284;19;800;-67
2022/11/24 03:53:34;;;;;;;;;;;;;;;;;;7377606;19;1306;-67
2022/11/24 03:56:02;;;;;;;;;;;;;;;;;;7379075;19;819;-67
2022/11/24 03:58:31;;;;;;;;;;;;;;;;;;7376884;19;1846;-67
2022/11/24 04:00:59;;;;;;;;;;;;;;;;;;7378189;19;808;-67
2022/11/24 04:03:27;;;;;;;;;;;;;;;;;;7377364;19;1329;-67
2022/11/24 04:05:55;;;;;;;;;;;;;;;;;;7377270;19;792;-67
2022/11/24 04:08:23;;;;;;;;;;;;;;;;;;7377994;19;779;-67
2022/11/24 04:10:51;;;;;;;;;;;;;;;;;;7382073;19;1888;-67
2022/11/24 04:13:17;;;;;;;;;;;;;;;;;;7378247;19;1425;-67
2022/11/24 04:15:45;;;;;;;;;;;;;;;;;;7377945;19;892;-67
2022/11/24 04:18:13;;;;;;;;;;;;;;;;;;7377078;19;1857;-67
2022/11/24 04:20:41;;;;;;;;;;;;;;;;;;7381733;19;1861;-68
2022/11/24 04:23:10;;;;;;;;;;;;;;;;;;7377516;19;1291;-67
2022/11/24 04:25:38;;;;;;;;;;;;;;;;;;7372709;19;801;-67
2022/11/24 04:28:06;;;;;;;;;;;;;;;;;;7369781;19;775;-67
2022/11/24 04:30:35;;;;;;;;;;;;;;;;;;7374386;19;1907;-67
2022/11/24 04:33:03;;;;;;;;;;;;;;;;;;7370415;19;1791;-66
2022/11/24 04:35:31;;;;;;;;;;;;;;;;;;7370880;19;827;-67
2022/11/24 04:37:59;;;;;;;;;;;;;;;;;;7368929;19;1869;-67
2022/11/24 04:40:27;;;;;;;;;;;;;;;;;;7373497;19;1892;-67
2022/11/24 04:42:56;;;;;;;;;;;;;;;;;;7370071;19;1200;-67
2022/11/24 04:45:24;;;;;;;;;;;;;;;;;;7370161;19;815;-67
2022/11/24 04:47:52;;;;;;;;;;;;;;;;;;7369332;19;811;-67
2022/11/24 04:50:20;;;;;;;;;;;;;;;;;;7373030;19;1912;-69
2022/11/24 04:52:49;;;;;;;;;;;;;;;;;;7369706;19;1346;-67
2022/11/24 04:55:17;;;;;;;;;;;;;;;;;;7369334;19;858;-67
2022/11/24 04:57:45;;;;;;;;;;;;;;;;;;7369460;19;848;-67
2022/11/24 05:00:13;;;;;;;;;;;;;;;;;;7369934;19;1910;-66
2022/11/24 05:02:41;;;;;;;;;;;;;;;;;;7369903;19;1344;-67
2022/11/24 05:05:09;;;;;;;;;;;;;;;;;;7370029;19;801;-66
2022/11/24 05:07:37;;;;;;;;;;;;;;;;;;7371743;19;815;-67
2022/11/24 05:12:46;;;;;;;;;;;;;;;;;;7369823;19;1330;-67
2022/11/24 05:15:14;;;;;;;;;;;;;;;;;;7371224;19;828;-66
2022/11/24 05:17:43;;;;;;;;;;;;;;;;;;7369827;19;823;-67
2022/11/24 05:20:11;;;;;;;;;;;;;;;;;;7369713;19;1895;-67
2022/11/24 05:22:39;;;;;;;;;;;;;;;;;;7370862;19;1254;-68
2022/11/24 05:25:07;;;;;;;;;;;;;;;;;;7370810;19;788;-66
2022/11/24 05:27:35;;;;;;;;;;;;;;;;;;7371189;19;815;-67
2022/11/24 05:30:03;;;;;;;;;;;;;;;;;;7371965;19;1641;-66
2022/11/24 05:32:31;;;;;;;;;;;;;;;;;;7369676;19;1275;-67
2022/11/24 05:35:01;;;;;;;;;;;;;;;;;;7369151;19;832;-69
2022/11/24 05:37:29;;;;;;;;;;;;;;;;;;7369223;19;827;-67
2022/11/24 05:39:57;;;;;;;;;;;;;;;;;;7368737;19;1861;-67
2022/11/24 05:45:06;;;;;;;;;;;;;;;;;;7368552;19;807;-67
2022/11/24 05:47:34;;;;;;;;;;;;;;;;;;7368049;19;837;-68
2022/11/24 05:50:02;;;;;;;;;;;;;;;;;;7370743;19;1875;-68
2022/11/24 05:52:30;;;;;;;;;;;;;;;;;;7368569;19;1346;-67
2022/11/24 05:54:58;;;;;;;;;;;;;;;;;;7372253;19;1862;-67
2022/11/24 05:57:26;;;;;;;;;;;;;;;;;;7368018;19;784;-67
2022/11/24 05:59:54;;;;;;;;;;;;;;;;;;7366680;19;1863;-67
2022/11/24 06:02:23;;;;;;;;;;;;;;;;;;7368459;19;927;-67
2022/11/24 06:04:51;;;;;;;;;;;;;;;;;;7365249;19;1111;-66
2022/11/24 06:07:19;;;;;;;;;;;;;;;;;;7368105;19;814;-67
2022/11/24 06:09:47;;;;;;;;;;;;;;;;;;7369357;19;1873;-67
2022/11/24 06:12:15;;;;;;;;;;;;;;;;;;7367876;19;830;-67
2022/11/24 06:14:44;;;;;;;;;;;;;;;;;;7364808;19;1331;-67
2022/11/24 06:17:12;;;;;;;;;;;;;;;;;;7367733;19;867;-66
2022/11/24 06:19:40;;;;;;;;;;;;;;;;;;7365727;19;1856;-67
2022/11/24 06:22:08;;;;;;;;;;;;;;;;;;7366296;19;822;-67
2022/11/24 06:24:36;;;;;;;;;;;;;;;;;;7363653;19;1273;-67
2022/11/24 06:27:05;;;;;;;;;;;;;;;;;;7367791;19;811;-66
2022/11/24 06:29:33;;;;;;;;;;;;;;;;;;7367140;19;1843;-67
2022/11/24 06:32:01;;;;;;;;;;;;;;;;;;7368878;19;1837;-68
2022/11/24 06:34:29;;;;;;;;;;;;;;;;;;7364644;19;1295;-67
2022/11/24 06:36:57;;;;;;;;;;;;;;;;;;7367400;19;823;-67
2022/11/24 06:39:26;;;;;;;;;;;;;;;;;;7365418;19;1932;-67
2022/11/24 06:41:54;;;;;;;;;;;;;;;;;;7367389;19;854;-68
2022/11/24 06:44:22;;;;;;;;;;;;;;;;;;7364746;19;1263;-68
2022/11/24 06:46:50;;;;;;;;;;;;;;;;;;7366633;19;795;-69
2022/11/24 06:49:18;;;;;;;;;;;;;;;;;;7364357;19;1857;-68
2022/11/24 06:51:46;;;;;;;;;;;;;;;;;;7366135;19;843;-67
2022/11/24 06:54:14;;;;;;;;;;;;;;;;;;7364130;19;1287;-67
2022/11/24 06:56:43;;;;;;;;;;;;;;;;;;7366474;19;799;-67
2022/11/24 06:59:11;;;;;;;;;;;;;;;;;;7364309;19;1870;-67
2022/11/24 07:01:39;;;;;;;;;;;;;;;;;;7366780;19;844;-67
2022/11/24 07:04:07;;;;;;;;;;;;;;;;;;7364639;19;1288;-71
2022/11/24 07:06:35;;;;;;;;;;;;;;;;;;7365830;19;843;-69
2022/11/24 07:09:04;;;;;;;;;;;;;;;;;;7365578;19;1756;-71
2022/11/24 07:11:32;;;;;;;;;;;;;;;;;;7370473;19;1942;-69
2022/11/24 07:14:00;;;;;;;;;;;;;;;;;;7363992;19;1463;-70
2022/11/24 07:16:28;;;;;;;;;;;;;;;;;;7365722;19;877;-69
2022/11/24 07:18:56;;;;;;;;;;;;;;;;;;7364234;19;1881;-69
2022/11/24 07:21:24;;;;;;;;;;;;;;;;;;7369030;19;1825;-68
2022/11/24 07:23:52;;;;;;;;;;;;;;;;;;7363882;19;1263;-67
2022/11/24 07:26:21;;;;;;;;;;;;;;;;;;7367434;19;1856;-68
2022/11/24 07:28:49;;;;;;;;;;;;;;;;;;7364944;19;775;-68
2022/11/24 07:31:17;;;;;;;;;;;;;;;;;;7369312;19;1871;-67
2022/11/24 07:33:45;;;;;;;;;;;;;;;;;;7363045;19;1354;-68
2022/11/24 07:36:14;;;;;;;;;;;;;;;;;;7365204;19;804;-70
2022/11/24 07:38:42;;;;;;;;;;;;;;;;;;7364312;19;1842;-68
2022/11/24 07:41:10;;;;;;;;;;;;;;;;;;7367767;19;1896;-67
2022/11/24 07:43:38;;;;;;;;;;;;;;;;;;7364422;19;1330;-69
2022/11/24 07:46:06;;;;;;;;;;;;;;;;;;7364460;19;1888;-66
2022/11/24 07:48:34;;;;;;;;;;;;;;;;;;7367237;19;1678;-68
2022/11/24 07:51:03;;;;;;;;;;;;;;;;;;7368696;19;1874;-67
2022/11/24 07:53:31;;;;;;;;;;;;;;;;;;7362906;19;1278;-67
2022/11/24 07:55:59;;;;;;;;;;;;;;;;;;7363843;19;799;-68
2022/11/24 07:58:27;;;;;;;;;;;;;;;;;;7364524;19;867;-67
2022/11/24 08:00:56;;;;;;;;;;;;;;;;;;7371678;19;1881;-68
2022/11/24 08:03:24;;;;;;;;;;;;;;;;;;7371183;19;1291;-65
2022/11/24 08:05:52;;;;;;;;;;;;;;;;;;7372475;19;811;-70
2022/11/24 08:08:20;;;;;;;;;;;;;;;;;;7372935;19;898;-66
2022/11/24 08:10:48;;;;;;;;;;;;;;;;;;7375002;19;1894;-71
2022/11/24 08:13:16;;;;;;;;;;;;;;;;;;7371267;19;1283;-70
2022/11/24 08:15:44;;;;;;;;;;;;;;;;;;7372474;19;824;-69
2022/11/24 08:18:13;;;;;;;;;;;;;;;;;;7371338;19;799;-69
2022/11/24 08:20:41;;;;;;;;;;;;;;;;;;7371970;19;2294;-68
2022/11/24 08:23:09;;;;;;;;;;;;;;;;;;7370523;19;1295;-65
2022/11/24 08:25:37;;;;;;;;;;;;;;;;;;7370745;19;761;-67
2022/11/24 08:28:06;;;;;;;;;;;;;;;;;;7369433;19;842;-67
2022/11/24 08:30:34;;;;;;;;;;;;;;;;;;7373845;19;1866;-70
2022/11/24 08:33:02;;;;;;;;;;;;;;;;;;7373127;19;1840;-70
2022/11/24 08:35:30;;;;;;;;;;;;;;;;;;7371514;19;888;-70
2022/11/24 08:38:00;;;;;;;;;;;;;;;;;;7371478;19;854;-71
2022/11/24 08:40:28;;;;;;;;;;;;;;;;;;7372214;19;1828;-70
2022/11/24 08:42:57;;;;;;;;;;;;;;;;;;7371421;19;1335;-70
2022/11/24 08:45:25;;;;;;;;;;;;;;;;;;7371201;19;855;-68
2022/11/24 08:47:53;;;;;;;;;;;;;;;;;;7370790;19;847;-68
2022/11/24 08:50:21;;;;;;;;;;;;;;;;;;7373311;19;1890;-68
2022/11/24 08:52:49;;;;;;;;;;;;;;;;;;7371615;19;1275;-67
2022/11/24 08:55:17;;;;;;;;;;;;;;;;;;7377093;19;802;-67
2022/11/24 08:57:45;;;;;;;;;;;;;;;;;;7375957;19;780;-68
2022/11/24 09:00:20;;;;;;;;;;;;;;;;;;7378348;19;1816;-68
2022/11/24 09:02:49;;;;;;;;;;;;;;;;;;7378400;19;1868;-67
2022/11/24 09:05:17;;;;;;;;;;;;;;;;;;7382329;19;1931;-67
2022/11/24 09:07:45;;;;;;;;;;;;;;;;;;7370486;19;814;-69
2022/11/24 09:10:13;;;;;;;;;;;;;;;;;;7371118;19;815;-69
2022/11/24 09:12:41;;;;;;;;;;;;;;;;;;7369168;19;1448;-69
2022/11/24 09:15:09;;;;;;;;;;;;;;;;;;7371920;19;822;-70
2022/11/24 09:17:38;;;;;;;;;;;;;;;;;;7370100;19;775;-68
2022/11/24 09:20:06;;;;;;;;;;;;;;;;;;7368907;19;1848;-68
2022/11/24 09:22:34;;;;;;;;;;;;;;;;;;7369261;19;1192;-69
2022/11/24 09:25:02;;;;;;;;;;;;;;;;;;7369697;19;820;-69
2022/11/24 09:27:30;;;;;;;;;;;;;;;;;;7369934;19;860;-71
2022/11/24 09:29:59;;;;;;;;;;;;;;;;;;7370514;19;1903;-70
2022/11/24 09:32:27;;;;;;;;;;;;;;;;;;7372946;19;1655;-66
2022/11/24 09:34:55;;;;;;;;;;;;;;;;;;7369772;19;1859;-69
2022/11/24 09:37:23;;;;;;;;;;;;;;;;;;7370220;19;872;-69
2022/11/24 09:39:51;;;;;;;;;;;;;;;;;;7370283;19;1917;-69
2022/11/24 09:42:20;;;;;;;;;;;;;;;;;;7371385;19;1918;-70
2022/11/24 09:44:48;;;;;;;;;;;;;;;;;;7371486;19;2253;-70
2022/11/24 09:47:16;;;;;;;;;;;;;;;;;;7370213;19;843;-69
2022/11/24 09:49:44;;;;;;;;;;;;;;;;;;7369142;19;846;-70
2022/11/24 09:52:12;;;;;;;;;;;;;;;;;;7368736;19;867;-70
2022/11/24 09:54:40;;;;;;;;;;;;;;;;;;7366142;19;1334;-70
2022/11/24 09:57:09;;;;;;;;;;;;;;;;;;7371428;19;1839;-70
2022/11/24 09:59:37;;;;;;;;;;;;;;;;;;7367432;19;1853;-70
2022/11/24 10:02:05;;;;;;;;;;;;;;;;;;7369817;19;833;-68
2022/11/24 10:04:33;;;;;;;;;;;;;;;;;;7365358;19;1360;-69
2022/11/24 10:07:01;;;;;;;;;;;;;;;;;;7369541;19;876;-68
2022/11/24 10:09:30;;;;;;;;;;;;;;;;;;7369005;19;860;-69
2022/11/24 10:11:58;;;;;;;;;;;;;;;;;;7368141;19;831;-69
2022/11/24 10:14:26;;;;;;;;;;;;;;;;;;7366363;19;1799;-69
2022/11/24 10:16:54;;;;;;;;;;;;;;;;;;7368499;19;851;-69
2022/11/24 10:19:22;;;;;;;;;;;;;;;;;;7367372;19;859;-70
2022/11/24 10:21:50;;;;;;;;;;;;;;;;;;7365111;19;1901;-68
2022/11/24 10:24:18;;;;;;;;;;;;;;;;;;7364007;19;1247;-68
2022/11/24 10:26:47;;;;;;;;;;;;;;;;;;7368329;19;819;-69
2022/11/24 10:29:15;;;;;;;;;;;;;;;;;;7367161;19;826;-68
2022/11/24 10:31:43;;;;;;;;;;;;;;;;;;7368279;19;791;-67
2022/11/24 10:34:11;;;;;;;;;;;;;;;;;;7366144;19;1259;-68
2022/11/24 10:36:39;;;;;;;;;;;;;;;;;;7368038;19;843;-68
2022/11/24 10:39:08;;;;;;;;;;;;;;;;;;7368766;19;869;-69
2022/11/24 10:41:36;;;;;;;;;;;;;;;;;;7366288;19;1844;-68
2022/11/24 10:44:04;;;;;;;;;;;;;;;;;;7366067;19;1349;-68
2022/11/24 10:46:32;;;;;;;;;;;;;;;;;;7367856;19;879;-68
2022/11/24 10:49:00;;;;;;;;;;;;;;;;;;7368042;19;858;-68
2022/11/24 10:51:29;;;;;;;;;;;;;;;;;;7368006;19;838;-69
2022/11/24 10:53:57;;;;;;;;;;;;;;;;;;7365409;19;1358;-69
2022/11/24 10:56:25;;;;;;;;;;;;;;;;;;7367708;19;866;-69
2022/11/24 10:58:53;;;;;;;;;;;;;;;;;;7366888;19;851;-69
2022/11/24 11:01:21;;;;;;;;;;;;;;;;;;7364443;19;1845;-69
2022/11/24 11:03:49;;;;;;;;;;;;;;;;;;7366039;19;1349;-69
2022/11/24 11:06:17;;;;;;;;;;;;;;;;;;7367257;19;789;-67
2022/11/24 11:08:46;;;;;;;;;;;;;;;;;;7366286;19;879;-67
2022/11/24 11:11:14;;;;;;;;;;;;;;;;;;7366825;19;823;-67
2022/11/24 11:13:42;;;;;;;;;;;;;;;;;;7365070;19;1259;-68
2022/11/24 11:16:10;;;;;;;;;;;;;;;;;;7365816;19;829;-67
2022/11/24 11:18:38;;;;;;;;;;;;;;;;;;7365021;19;830;-67
2022/11/24 11:21:07;;;;;;;;;;;;;;;;;;7364532;19;1849;-68
2022/11/24 11:23:35;;;;;;;;;;;;;;;;;;7369014;19;1856;-67
2022/11/24 11:26:03;;;;;;;;;;;;;;;;;;7366551;19;858;-67
2022/11/24 11:28:31;;;;;;;;;;;;;;;;;;7368330;19;2153;-67
2022/11/24 11:31:01;;;;;;;;;;;;;;;;;;7364595;19;842;-68
2022/11/24 11:33:29;;;;;;;;;;;;;;;;;;7368258;19;1831;-66
2022/11/24 11:35:59;;;;;;;;;;;;;;;;;;7373418;19;1907;-66
2022/11/24 11:38:27;;;;;;;;;;;;;;;;;;7374048;19;1837;-66
2022/11/24 11:40:56;;;;;;;;;;;;;;;;;;7371188;19;1841;-65
2022/11/24 11:43:24;;;;;;;;;;;;;;;;;;7377476;19;1826;-66
2022/11/24 11:45:52;;;;;;;;;;;;;;;;;;7372719;19;1875;-66
2022/11/24 11:48:20;;;;;;;;;;;;;;;;;;7371995;19;786;-67
2022/11/24 11:50:48;;;;;;;;;;;;;;;;;;7372821;19;815;-67
2022/11/24 11:53:16;;;;;;;;;;;;;;;;;;7371643;19;1283;-67
2022/11/24 11:55:45;;;;;;;;;;;;;;;;;;7371612;19;854;-66
2022/11/24 11:58:13;;;;;;;;;;;;;;;;;;7371403;19;878;-66
2022/11/24 12:00:41;;;;;;;;;;;;;;;;;;7371025;19;1858;-68
2022/11/24 12:03:09;;;;;;;;;;;;;;;;;;7374871;19;1878;-67
2022/11/24 12:05:37;;;;;;;;;;;;;;;;;;7369992;19;814;-67
2022/11/24 12:08:07;;;;;;;;;;;;;;;;;;7370705;19;857;-68
2022/11/24 12:10:35;;;;;;;;;;;;;;;;;;7367847;19;820;-68
2022/11/24 12:13:03;;;;;;;;;;;;;;;;;;7369349;19;2101;-69
2022/11/24 12:15:31;;;;;;;;;;;;;;;;;;7375206;19;1928;-69
2022/11/24 12:18:00;;;;;;;;;;;;;;;;;;7370978;19;788;-68
2022/11/24 12:20:28;;;;;;;;;;;;;;;;;;7371048;19;1806;-70
2022/11/24 12:22:56;;;;;;;;;;;;;;;;;;7369896;19;1891;-69
2022/11/24 12:25:24;;;;;;;;;;;;;;;;;;7371496;19;1865;-69
2022/11/24 12:27:52;;;;;;;;;;;;;;;;;;7371584;19;799;-69
2022/11/24 12:30:20;;;;;;;;;;;;;;;;;;7371257;19;833;-68
2022/11/24 12:32:49;;;;;;;;;;;;;;;;;;7369403;19;1291;-67
2022/11/24 12:35:17;;;;;;;;;;;;;;;;;;7369527;19;852;-66
2022/11/24 12:37:45;;;;;;;;;;;;;;;;;;7369939;19;847;-66
2022/11/24 12:40:13;;;;;;;;;;;;;;;;;;7370844;19;1841;-67
2022/11/24 12:42:42;;;;;;;;;;;;;;;;;;7373567;19;1880;-67
2022/11/24 12:45:11;;;;;;;;;;;;;;;;;;7371638;19;873;-67
2022/11/24 12:47:40;;;;;;;;;;;;;;;;;;7368065;19;895;-68
2022/11/24 12:50:08;;;;;;;;;;;;;;;;;;7369912;19;768;-68
2022/11/24 12:52:36;;;;;;;;;;;;;;;;;;7370465;19;1812;-68
2022/11/24 12:55:04;;;;;;;;;;;;;;;;;;7371158;19;854;-69
2022/11/24 12:57:32;;;;;;;;;;;;;;;;;;7368537;19;806;-68
2022/11/24 13:00:00;;;;;;;;;;;;;;;;;;7369498;19;803;-68
2022/11/24 13:02:29;;;;;;;;;;;;;;;;;;7371551;19;1940;-68
2022/11/24 13:04:57;;;;;;;;;;;;;;;;;;7371012;19;854;-68
2022/11/24 13:07:25;;;;;;;;;;;;;;;;;;7370659;19;891;-68
2022/11/24 13:09:53;;;;;;;;;;;;;;;;;;7372418;19;1898;-68
2022/11/24 13:12:21;;;;;;;;;;;;;;;;;;7369916;19;827;-64
2022/11/24 13:14:50;;;;;;;;;;;;;;;;;;7369623;19;1339;-64
2022/11/24 13:17:18;;;;;;;;;;;;;;;;;;7371468;19;776;-66
2022/11/24 13:19:46;;;;;;;;;;;;;;;;;;7374684;19;1828;-66
2022/11/24 13:22:14;;;;;;;;;;;;;;;;;;7368407;19;1837;-67
2022/11/24 13:24:43;;;;;;;;;;;;;;;;;;7369177;19;1388;-65
2022/11/24 13:27:11;;;;;;;;;;;;;;;;;;7369474;19;758;-68
2022/11/24 13:29:40;;;;;;;;;;;;;;;;;;7376087;19;1860;-65
2022/11/24 13:32:09;;;;;;;;;;;;;;;;;;7374068;19;1872;-64
2022/11/24 13:34:37;;;;;;;;;;;;;;;;;;7367213;19;1290;-64
2022/11/24 13:37:05;;;;;;;;;;;;;;;;;;7371338;19;828;-66
2022/11/24 13:39:34;;;;;;;;;;;;;;;;;;7369772;19;888;-65
2022/11/24 13:42:02;;;;;;;;;;;;;;;;;;7371517;19;1844;-67
2022/11/24 13:44:30;;;;;;;;;;;;;;;;;;7370485;19;2007;-69
2022/11/24 13:46:58;;;;;;;;;;;;;;;;;;7373120;19;1999;-66
2022/11/24 13:49:26;;;;;;;;;;;;;;;;;;7369021;19;800;-65
2022/11/24 13:51:54;;;;;;;;;;;;;;;;;;7370982;19;816;-66
2022/11/24 13:54:23;;;;;;;;;;;;;;;;;;7366518;19;1332;-66
2022/11/24 13:56:51;;;;;;;;;;;;;;;;;;7369715;19;864;-66
2022/11/24 13:59:19;;;;;;;;;;;;;;;;;;7368865;19;804;-65
2022/11/24 14:01:47;;;;;;;;;;;;;;;;;;7369926;19;1849;-68
2022/11/24 14:04:16;;;;;;;;;;;;;;;;;;7368820;19;1930;-67
2022/11/24 14:06:44;;;;;;;;;;;;;;;;;;7370865;19;1856;-66
2022/11/24 14:09:12;;;;;;;;;;;;;;;;;;7373856;19;2035;-68
2022/11/24 14:11:40;;;;;;;;;;;;;;;;;;7367897;19;834;-66
2022/11/24 14:14:08;;;;;;;;;;;;;;;;;;7369178;19;1858;-67
2022/11/24 14:16:36;;;;;;;;;;;;;;;;;;7369692;19;2115;-66
2022/11/24 14:19:05;;;;;;;;;;;;;;;;;;7369191;19;1835;-71
2022/11/24 14:21:33;;;;;;;;;;;;;;;;;;7369484;19;1851;-68
2022/11/24 14:24:01;;;;;;;;;;;;;;;;;;7368196;19;1283;-71
2022/11/24 14:26:29;;;;;;;;;;;;;;;;;;7371893;19;850;-69
2022/11/24 14:28:57;;;;;;;;;;;;;;;;;;7369280;19;793;-67
2022/11/24 14:31:26;;;;;;;;;;;;;;;;;;7372160;19;1830;-66
2022/11/24 14:33:54;;;;;;;;;;;;;;;;;;7367673;19;1357;-68
2022/11/24 14:36:22;;;;;;;;;;;;;;;;;;7369998;19;872;-68
2022/11/24 14:38:50;;;;;;;;;;;;;;;;;;7370263;19;811;-69
2022/11/24 14:41:18;;;;;;;;;;;;;;;;;;7368374;19;1857;-70
2022/11/24 14:43:47;;;;;;;;;;;;;;;;;;7367163;19;1361;-67
2022/11/24 14:46:15;;;;;;;;;;;;;;;;;;7367856;19;776;-67
2022/11/24 14:48:43;;;;;;;;;;;;;;;;;;7368085;19;745;-66
2022/11/24 14:51:11;;;;;;;;;;;;;;;;;;7368469;19;1791;-66
2022/11/24 14:53:39;;;;;;;;;;;;;;;;;;7366787;19;1758;-69
2022/11/24 14:56:07;;;;;;;;;;;;;;;;;;7368578;19;832;-68
2022/11/24 14:58:36;;;;;;;;;;;;;;;;;;7367018;19;840;-72
2022/11/24 15:01:05;;;;;;;;;;;;;;;;;;7368968;19;1834;-69
2022/11/24 15:03:33;;;;;;;;;;;;;;;;;;7366425;19;1378;-71
2022/11/24 15:06:01;;;;;;;;;;;;;;;;;;7370038;19;839;-71
2022/11/24 15:08:29;;;;;;;;;;;;;;;;;;7369264;19;803;-71
2022/11/24 15:10:58;;;;;;;;;;;;;;;;;;7366719;19;865;-71
2022/11/24 15:13:26;;;;;;;;;;;;;;;;;;7371973;19;1924;-74
2022/11/24 15:15:54;;;;;;;;;;;;;;;;;;7368864;19;730;-69
2022/11/24 15:18:22;;;;;;;;;;;;;;;;;;7369595;19;803;-70
2022/11/24 15:20:50;;;;;;;;;;;;;;;;;;7372484;19;874;-70
2022/11/24 15:23:18;;;;;;;;;;;;;;;;;;7367356;19;1864;-71
2022/11/24 15:25:47;;;;;;;;;;;;;;;;;;7369386;19;863;-69
2022/11/24 15:28:15;;;;;;;;;;;;;;;;;;7368928;19;817;-69
2022/11/24 15:30:43;;;;;;;;;;;;;;;;;;7372847;19;788;-69
2022/11/24 15:33:11;;;;;;;;;;;;;;;;;;7371214;19;1299;-67
2022/11/24 15:35:39;;;;;;;;;;;;;;;;;;7372556;19;903;-68
2022/11/24 15:38:07;;;;;;;;;;;;;;;;;;7373324;19;1924;-67
2022/11/24 15:40:36;;;;;;;;;;;;;;;;;;7372263;19;1892;-68
2022/11/24 15:43:04;;;;;;;;;;;;;;;;;;7367085;19;1849;-67
2022/11/24 15:45:32;;;;;;;;;;;;;;;;;;7371952;19;1871;-69
2022/11/24 15:48:00;;;;;;;;;;;;;;;;;;7368048;19;872;-67
2022/11/24 15:50:28;;;;;;;;;;;;;;;;;;7368075;19;878;-67
2022/11/24 15:52:56;;;;;;;;;;;;;;;;;;7368352;19;1394;-68
2022/11/24 15:55:25;;;;;;;;;;;;;;;;;;7368400;19;882;-68
2022/11/24 15:57:53;;;;;;;;;;;;;;;;;;7366217;19;819;-67
2022/11/24 16:00:21;;;;;;;;;;;;;;;;;;7367498;19;1838;-68
2022/11/24 16:02:49;;;;;;;;;;;;;;;;;;7363235;19;1818;-68
2022/11/24 16:05:17;;;;;;;;;;;;;;;;;;7365304;19;849;-68
2022/11/24 16:07:45;;;;;;;;;;;;;;;;;;7364364;19;956;-68
2022/11/24 16:10:13;;;;;;;;;;;;;;;;;;7364540;19;1716;-68
2022/11/24 16:12:42;;;;;;;;;;;;;;;;;;7369072;19;1833;-67
2022/11/24 16:15:10;;;;;;;;;;;;;;;;;;7365070;19;865;-70
2022/11/24 16:17:38;;;;;;;;;;;;;;;;;;7364788;19;776;-68
2022/11/24 16:20:06;;;;;;;;;;;;;;;;;;7364414;19;876;-67
2022/11/24 16:22:34;;;;;;;;;;;;;;;;;;7368681;19;1842;-68
2022/11/24 16:25:03;;;;;;;;;;;;;;;;;;7370429;19;811;-68
2022/11/24 16:27:31;;;;;;;;;;;;;;;;;;7371673;19;783;-67
2022/11/24 16:30:00;;;;;;;;;;;;;;;;;;7370613;19;765;-67
2022/11/24 16:32:28;;;;;;;;;;;;;;;;;;7371899;19;792;-68
2022/11/24 16:34:56;;;;;;;;;;;;;;;;;;7370003;19;1346;-67
2022/11/24 16:37:24;;;;;;;;;;;;;;;;;;7372987;19;1854;-67
2022/11/24 16:39:52;;;;;;;;;;;;;;;;;;7368568;19;854;-68
2022/11/24 16:42:21;;;;;;;;;;;;;;;;;;7370081;19;1855;-68
2022/11/24 16:44:50;;;;;;;;;;;;;;;;;;7368276;19;1243;-67
2022/11/24 16:47:18;;;;;;;;;;;;;;;;;;7370448;19;754;-68
2022/11/24 16:49:47;;;;;;;;;;;;;;;;;;7369720;19;823;-68
2022/11/24 16:52:15;;;;;;;;;;;;;;;;;;7370503;19;813;-69
2022/11/24 16:54:43;;;;;;;;;;;;;;;;;;7368482;19;1244;-66
2022/11/24 16:57:12;;;;;;;;;;;;;;;;;;7370329;19;783;-67
2022/11/24 16:59:42;;;;;;;;;;;;;;;;;;7369507;19;1825;-68
2022/11/24 17:02:10;;;;;;;;;;;;;;;;;;7373969;19;1829;-68
2022/11/24 17:04:38;;;;;;;;;;;;;;;;;;7371676;19;1985;-68
2022/11/24 17:07:06;;;;;;;;;;;;;;;;;;7375366;19;1997;-70
2022/11/24 17:09:34;;;;;;;;;;;;;;;;;;7371867;19;1676;-66
2022/11/24 17:12:02;;;;;;;;;;;;;;;;;;7369429;19;824;-69
2022/11/24 17:14:30;;;;;;;;;;;;;;;;;;7367189;19;1366;-70
2022/11/24 17:16:59;;;;;;;;;;;;;;;;;;7371207;19;854;-69
2022/11/24 17:19:27;;;;;;;;;;;;;;;;;;7369550;19;776;-70
2022/11/24 17:21:55;;;;;;;;;;;;;;;;;;7370011;19;1838;-70